Terminal Aerodrome Forecast
Issued by NWS Twin Cities, MN

Home | Current Version | Previous Version | Text Only | Print | Product List | Glossary Off
Versions: 1 2 3 4 5 6 7 8 9 10 11 12 13 14 15 16

000
FTUS43 KMPX 171700
TAFEAU
TAF
KEAU 171740Z 1718/1818 00000KT P6SM FEW060
     FM180100 05004KT P6SM SKC
     FM181100 08006KT P6SM SCT010 SCT250
     FM181500 13008KT P6SM SCT250=

USA.gov is the U.S. government's official web portal to all federal, state and local government web resources and services.